Time;durP1;ratioP1;P1;durP2;ratioP2;P2;SDS_P1;SDS_P2;PMS_P1;PMS_P2;Temp;Humidity;BMP_temperature;BMP_pressure;BME280_temperature;BME280_humidity;BME280_pressure;Samples;Min_cycle;Max_cycle;Signal;HPM_P1;HPM_P2
2021/03/24 00:01:09;;;;;;;15.90;9.27;;;1.50;99.90;;;;;;5116330;28;20455;-80
2021/03/24 00:03:36;;;;;;;18.10;10.73;;;1.40;99.90;;;;;;5116674;28;20435;-80
2021/03/24 00:06:02;;;;;;;15.87;9.80;;;1.40;99.90;;;;;;5116602;28;20489;-80
2021/03/24 00:08:28;;;;;;;16.80;8.50;;;1.40;99.90;;;;;;5116141;28;20985;-80
2021/03/24 00:10:55;;;;;;;12.97;8.83;;;1.30;99.90;;;;;;5116577;28;20428;-80
2021/03/24 00:13:21;;;;;;;16.27;9.00;;;1.30;99.90;;;;;;5116436;28;20451;-81
2021/03/24 00:15:47;;;;;;;18.10;9.97;;;1.30;99.90;;;;;;5116328;28;20450;-80
2021/03/24 00:18:14;;;;;;;16.43;9.53;;;1.30;99.90;;;;;;5115952;28;20956;-80
2021/03/24 00:20:43;;;;;;;13.17;8.90;;;1.20;99.90;;;;;;5116007;28;20453;-80
2021/03/24 00:23:10;;;;;;;16.47;9.77;;;1.20;99.90;;;;;;5116105;28;20930;-80
2021/03/24 00:25:36;;;;;;;18.93;10.07;;;1.30;99.90;;;;;;5116196;28;20446;-80
2021/03/24 00:28:04;;;;;;;18.50;9.63;;;1.20;99.90;;;;;;5116115;28;20467;-80
2021/03/24 00:30:32;;;;;;;15.73;9.63;;;1.20;99.90;;;;;;5116102;28;20426;-83
2021/03/24 00:32:59;;;;;;;17.60;10.63;;;1.20;99.90;;;;;;5115761;28;20803;-83
2021/03/24 00:35:26;;;;;;;17.43;10.33;;;1.20;99.90;;;;;;5116068;28;20435;-83
2021/03/24 00:37:53;;;;;;;15.83;9.13;;;1.30;99.90;;;;;;5115827;28;20518;-83
2021/03/24 00:40:22;;;;;;;16.80;10.20;;;1.20;99.90;;;;;;5115974;28;20442;-83
2021/03/24 00:42:48;;;;;;;20.07;10.50;;;1.30;99.90;;;;;;5115860;28;20454;-83
2021/03/24 00:45:15;;;;;;;13.70;10.77;;;1.30;99.90;;;;;;5115827;28;20439;-83
2021/03/24 00:47:42;;;;;;;22.30;11.70;;;1.40;99.90;;;;;;5115438;28;20986;-83
2021/03/24 00:50:11;;;;;;;15.93;9.90;;;1.50;99.90;;;;;;5115478;28;20960;-83
2021/03/24 00:52:37;;;;;;;18.00;9.63;;;1.40;99.90;;;;;;5114407;28;20454;-83
2021/03/24 00:55:05;;;;;;;18.43;10.50;;;1.40;99.90;;;;;;5115503;28;20428;-83
2021/03/24 00:57:32;;;;;;;17.40;9.40;;;1.30;99.90;;;;;;5115454;28;20857;-83
2021/03/24 00:59:58;;;;;;;16.47;9.87;;;1.20;99.90;;;;;;5115270;28;20443;-81
2021/03/24 01:02:24;;;;;;;21.20;11.17;;;1.20;99.90;;;;;;5115477;28;20447;-81
2021/03/24 01:04:51;;;;;;;17.23;9.87;;;1.10;99.90;;;;;;5115144;28;20417;-80
2021/03/24 01:07:17;;;;;;;23.00;11.10;;;1.00;99.90;;;;;;5115052;28;20966;-81
2021/03/24 01:09:44;;;;;;;15.50;10.33;;;1.00;99.90;;;;;;5115092;28;20439;-81
2021/03/24 01:12:11;;;;;;;19.63;11.20;;;1.00;99.90;;;;;;5114998;28;20962;-81
2021/03/24 01:14:38;;;;;;;20.83;10.90;;;0.90;99.90;;;;;;5115256;28;20417;-81
2021/03/24 01:17:05;;;;;;;18.40;10.93;;;0.90;99.90;;;;;;5115041;28;20465;-81
2021/03/24 01:19:31;;;;;;;17.97;10.90;;;0.90;99.90;;;;;;5115127;28;20482;-81
2021/03/24 01:21:58;;;;;;;19.60;13.23;;;0.90;99.90;;;;;;5114782;28;20962;-81
2021/03/24 01:24:24;;;;;;;17.67;11.67;;;0.90;99.90;;;;;;5114751;28;21011;-81
2021/03/24 01:26:50;;;;;;;17.87;11.20;;;0.90;99.90;;;;;;5114637;28;20964;-81
2021/03/24 01:29:17;;;;;;;20.30;11.70;;;0.90;99.90;;;;;;5114674;28;20436;-81
2021/03/24 01:31:43;;;;;;;18.70;11.80;;;0.90;99.90;;;;;;5114586;28;20802;-81
2021/03/24 01:34:10;;;;;;;24.50;12.60;;;0.90;99.90;;;;;;5114878;28;20445;-81
2021/03/24 01:36:36;;;;;;;19.43;11.87;;;1.00;99.90;;;;;;5114681;28;20479;-81
2021/03/24 01:39:03;;;;;;;17.27;10.67;;;1.00;99.90;;;;;;5114744;28;20454;-81
2021/03/24 01:41:30;;;;;;;18.50;11.53;;;1.00;99.90;;;;;;5114723;28;20443;-81
2021/03/24 01:43:57;;;;;;;21.13;10.97;;;0.90;99.90;;;;;;5114369;28;20935;-81
2021/03/24 01:46:37;;;;;;;17.43;11.67;;;0.90;99.90;;;;;;5114591;28;20439;-80
2021/03/24 01:49:09;;;;;;;18.50;11.20;;;0.90;99.90;;;;;;5114501;28;20442;-80
2021/03/24 01:51:38;;;;;;;19.80;11.27;;;0.80;99.90;;;;;;5114226;28;20914;-80
2021/03/24 01:54:07;;;;;;;22.97;11.20;;;0.80;99.90;;;;;;5114269;28;20801;-80
2021/03/24 01:56:34;;;;;;;15.87;10.80;;;0.80;99.90;;;;;;5113927;28;20522;-80
2021/03/24 01:59:01;;;;;;;16.60;10.30;;;0.80;99.90;;;;;;5114430;28;20820;-80
2021/03/24 02:01:28;;;;;;;22.97;11.13;;;0.70;99.90;;;;;;5114378;28;20447;-83
2021/03/24 02:03:55;;;;;;;21.27;12.57;;;0.70;99.90;;;;;;5113885;28;20425;-83
2021/03/24 02:06:29;;;;;;;21.20;11.10;;;0.60;99.90;;;;;;5114174;28;20447;-84
2021/03/24 02:09:04;;;;;;;21.67;12.13;;;0.60;99.90;;;;;;5113971;28;20467;-84
2021/03/24 02:11:34;;;;;;;17.60;11.10;;;0.60;99.90;;;;;;5113990;28;20805;-83
2021/03/24 02:14:07;;;;;;;23.50;12.63;;;0.60;99.90;;;;;;5114057;28;20929;-84
2021/03/24 02:16:38;;;;;;;17.30;10.60;;;0.60;99.90;;;;;;5114057;28;20467;-84
2021/03/24 02:19:12;;;;;;;23.20;12.67;;;0.60;99.90;;;;;;5114123;28;20458;-83
2021/03/24 02:21:41;;;;;;;18.20;10.73;;;0.60;99.90;;;;;;5113873;28;20881;-84
2021/03/24 02:24:17;;;;;;;18.27;10.90;;;0.70;99.90;;;;;;5113834;28;20949;-83
2021/03/24 02:26:48;;;;;;;17.00;10.60;;;0.70;99.90;;;;;;5114470;28;20437;-87
2021/03/24 02:29:19;;;;;;;18.97;12.40;;;0.70;99.90;;;;;;5114626;28;20432;-87
2021/03/24 02:31:45;;;;;;;19.83;10.90;;;0.70;99.90;;;;;;5114616;28;20447;-88
2021/03/24 02:34:18;;;;;;;19.10;11.67;;;0.70;99.90;;;;;;5114124;28;20952;-87
2021/03/24 02:36:45;;;;;;;20.57;11.03;;;0.70;99.90;;;;;;5114035;28;20471;-80
2021/03/24 02:39:18;;;;;;;20.60;11.03;;;0.60;99.90;;;;;;5113867;28;20480;-80
2021/03/24 02:41:45;;;;;;;17.50;11.43;;;0.60;99.90;;;;;;5113875;28;20427;-80
2021/03/24 02:44:13;;;;;;;17.57;11.63;;;0.60;99.90;;;;;;5113572;28;20546;-80
2021/03/24 02:46:42;;;;;;;19.30;11.10;;;0.60;99.90;;;;;;5113411;28;20446;-80
2021/03/24 02:49:10;;;;;;;21.20;11.53;;;0.60;99.90;;;;;;5113705;28;20469;-80
2021/03/24 02:51:38;;;;;;;22.50;10.87;;;0.60;99.90;;;;;;5113362;28;20443;-80
2021/03/24 02:54:08;;;;;;;21.00;11.60;;;0.50;99.90;;;;;;5113679;28;20478;-80
2021/03/24 02:56:35;;;;;;;22.80;11.57;;;0.50;99.90;;;;;;5113050;28;20490;-80
2021/03/24 02:59:02;;;;;;;18.30;11.50;;;0.50;99.90;;;;;;5113660;28;20451;-80
2021/03/24 03:01:34;;;;;;;19.17;11.60;;;0.50;99.90;;;;;;5113270;28;20454;-80
2021/03/24 03:04:07;;;;;;;21.37;11.67;;;0.50;99.90;;;;;;5113298;28;20402;-80
2021/03/24 03:06:33;;;;;;;19.23;11.80;;;0.50;99.90;;;;;;5113461;28;20430;-80
2021/03/24 03:09:04;;;;;;;25.10;11.67;;;0.50;99.90;;;;;;5113514;28;20476;-80
2021/03/24 03:11:39;;;;;;;16.80;10.97;;;0.50;99.90;;;;;;5113292;28;20444;-80
2021/03/24 03:14:10;;;;;;;17.53;11.57;;;0.60;99.90;;;;;;5113203;28;20958;-80
2021/03/24 03:16:41;;;;;;;21.07;11.90;;;0.60;99.90;;;;;;5115041;28;21001;-80
2021/03/24 03:19:13;;;;;;;20.03;11.37;;;0.50;99.90;;;;;;5117715;28;20443;-80
2021/03/24 03:21:42;;;;;;;18.90;11.47;;;0.50;99.90;;;;;;5117148;28;20914;-80
2021/03/24 03:24:11;;;;;;;21.10;12.67;;;0.50;99.90;;;;;;5117370;28;20521;-80
2021/03/24 03:26:40;;;;;;;23.83;12.47;;;0.50;99.90;;;;;;5117209;28;20447;-80
2021/03/24 03:29:12;;;;;;;21.77;13.30;;;0.40;99.90;;;;;;5116924;28;20806;-80
2021/03/24 03:31:42;;;;;;;20.07;12.07;;;0.40;99.90;;;;;;5117294;28;20845;-80
2021/03/24 03:34:11;;;;;;;18.60;12.47;;;0.40;99.90;;;;;;5117210;28;20447;-83
2021/03/24 03:36:40;;;;;;;20.50;11.40;;;0.40;99.90;;;;;;5116802;28;21072;-83
2021/03/24 03:39:11;;;;;;;19.60;13.60;;;0.40;99.90;;;;;;5117131;28;20450;-83
2021/03/24 03:41:38;;;;;;;23.47;12.83;;;0.40;99.90;;;;;;5117156;28;20435;-83
2021/03/24 03:44:07;;;;;;;27.87;13.47;;;0.50;99.90;;;;;;5117059;28;20454;-83
2021/03/24 03:46:38;;;;;;;25.57;13.20;;;0.50;99.90;;;;;;5116643;28;20421;-83
2021/03/24 03:49:05;;;;;;;24.13;12.53;;;0.50;99.90;;;;;;5117102;28;20432;-83
2021/03/24 03:51:40;;;;;;;26.27;13.63;;;0.50;99.90;;;;;;5116927;28;20454;-83
2021/03/24 03:54:13;;;;;;;24.63;13.77;;;0.50;99.90;;;;;;5116665;28;20410;-83
2021/03/24 03:56:48;;;;;;;21.07;12.70;;;0.50;99.90;;;;;;5116319;28;21023;-83
2021/03/24 03:59:20;;;;;;;28.10;14.07;;;0.50;99.90;;;;;;5116808;28;20410;-83
2021/03/24 04:01:50;;;;;;;24.60;12.97;;;0.50;99.90;;;;;;5116759;28;20409;-83
2021/03/24 04:04:21;;;;;;;24.60;13.47;;;0.50;99.90;;;;;;5116451;28;20410;-83
2021/03/24 04:06:57;;;;;;;22.20;13.27;;;0.50;99.90;;;;;;5116702;28;20398;-83
2021/03/24 04:09:24;;;;;;;31.27;14.80;;;0.50;99.90;;;;;;5116687;28;20468;-83
2021/03/24 04:11:53;;;;;;;23.90;13.70;;;0.50;99.90;;;;;;5116550;28;20443;-83
2021/03/24 04:14:22;;;;;;;22.70;13.27;;;0.50;99.90;;;;;;5116562;28;20447;-83
2021/03/24 04:16:50;;;;;;;21.70;12.37;;;0.50;99.90;;;;;;5116313;28;20464;-83
2021/03/24 04:19:18;;;;;;;24.80;13.30;;;0.50;99.90;;;;;;5116137;28;20767;-83
2021/03/24 04:21:49;;;;;;;24.57;13.63;;;0.50;99.90;;;;;;5116314;28;20436;-80
2021/03/24 04:24:21;;;;;;;28.23;13.40;;;0.50;99.90;;;;;;5115952;28;20408;-80
2021/03/24 04:26:50;;;;;;;24.20;13.60;;;0.50;99.90;;;;;;5116082;28;20493;-80
2021/03/24 04:29:21;;;;;;;25.13;12.70;;;0.50;99.90;;;;;;5116126;28;20422;-80
2021/03/24 04:31:51;;;;;;;21.77;12.63;;;0.40;99.90;;;;;;5115887;28;20858;-80
2021/03/24 04:34:18;;;;;;;26.47;14.97;;;0.40;99.90;;;;;;5116074;28;20406;-79
2021/03/24 04:36:49;;;;;;;25.13;13.90;;;0.40;99.90;;;;;;5115856;28;20454;-79
2021/03/24 04:39:23;;;;;;;25.20;13.53;;;0.30;99.90;;;;;;5115989;28;20393;-80
2021/03/24 04:41:52;;;;;;;24.67;13.00;;;0.40;99.90;;;;;;5115945;28;20414;-80
2021/03/24 04:44:24;;;;;;;25.97;13.90;;;0.30;99.90;;;;;;5115874;28;20430;-80
2021/03/24 04:46:55;;;;;;;21.23;12.70;;;0.40;99.90;;;;;;5115476;28;20434;-80
2021/03/24 04:49:24;;;;;;;24.07;13.70;;;0.30;99.90;;;;;;5115824;28;20787;-79
2021/03/24 04:51:54;;;;;;;27.60;14.07;;;0.30;99.90;;;;;;5115721;28;20460;-79
2021/03/24 04:54:24;;;;;;;24.90;11.80;;;0.30;99.90;;;;;;5115746;28;20453;-80
2021/03/24 04:56:54;;;;;;;21.00;11.50;;;0.20;99.90;;;;;;5115047;28;20457;-80
2021/03/24 04:59:26;;;;;;;20.20;12.77;;;0.20;99.90;;;;;;5115666;28;20423;-80
2021/03/24 05:01:55;;;;;;;23.43;12.90;;;0.20;99.90;;;;;;5115414;28;20402;-80
2021/03/24 05:04:28;;;;;;;20.87;12.13;;;0.20;99.90;;;;;;5115206;28;20949;-80
2021/03/24 05:07:03;;;;;;;25.27;13.67;;;0.20;99.90;;;;;;5115389;28;20844;-79
2021/03/24 05:09:29;;;;;;;21.30;13.07;;;0.10;99.90;;;;;;5115392;28;20814;-79
2021/03/24 05:12:06;;;;;;;23.27;13.67;;;0.10;99.90;;;;;;5115292;28;20446;-79
2021/03/24 05:14:36;;;;;;;23.23;12.70;;;0.00;99.90;;;;;;5115315;28;20431;-79
2021/03/24 05:17:11;;;;;;;20.23;12.77;;;0.00;99.90;;;;;;5115103;28;20493;-79
2021/03/24 05:19:38;;;;;;;25.27;14.13;;;0.00;99.90;;;;;;5114865;28;20419;-80
2021/03/24 05:22:20;;;;;;;21.10;13.20;;;0.00;99.90;;;;;;5115076;28;20418;-79
2021/03/24 05:24:48;;;;;;;30.33;13.80;;;0.00;99.90;;;;;;5115086;28;20398;-80
2021/03/24 05:27:19;;;;;;;24.30;13.03;;;0.00;99.90;;;;;;5114922;28;20502;-80
2021/03/24 05:29:50;;;;;;;25.67;13.30;;;0.00;99.90;;;;;;5114639;28;20515;-79
2021/03/24 05:32:22;;;;;;;26.30;13.53;;;-0.10;99.90;;;;;;5114930;28;20529;-79
2021/03/24 05:34:51;;;;;;;28.13;13.00;;;0.00;99.90;;;;;;5114934;28;20398;-80
2021/03/24 05:37:23;;;;;;;32.53;14.43;;;0.00;99.90;;;;;;5114337;28;20461;-80
2021/03/24 05:39:51;;;;;;;28.13;13.73;;;0.10;99.90;;;;;;5115084;28;20420;-80
2021/03/24 05:42:39;;;;;;;26.10;14.30;;;0.10;99.90;;;;;;5114704;28;20426;-80
2021/03/24 05:45:35;;;;;;;27.50;13.97;;;0.20;99.90;;;;;;5114722;28;20423;-80
2021/03/24 05:48:34;;;;;;;22.27;13.70;;;0.30;99.90;;;;;;5111627;28;20535;-80
2021/03/24 05:51:14;;;;;;;24.17;13.07;;;0.30;99.90;;;;;;5114325;28;20398;-80
2021/03/24 05:54:10;;;;;;;21.07;12.27;;;0.40;99.90;;;;;;5114275;28;20868;-80
2021/03/24 05:57:01;;;;;;;27.20;13.33;;;0.40;99.90;;;;;;5113883;28;20980;-80
2021/03/24 05:59:37;;;;;;;19.60;12.00;;;0.40;99.90;;;;;;5114462;28;20409;-80
2021/03/24 06:02:08;;;;;;;25.13;13.53;;;0.40;99.90;;;;;;5114367;28;20433;-80
2021/03/24 06:04:40;;;;;;;24.70;14.30;;;0.50;99.90;;;;;;5114392;28;20432;-80
2021/03/24 06:07:40;;;;;;;27.97;14.30;;;0.60;99.90;;;;;;5114191;28;20459;-80
2021/03/24 06:10:40;;;;;;;27.97;13.60;;;0.60;99.90;;;;;;5114263;28;20480;-80
2021/03/24 06:14:12;;;;;;;23.63;13.67;;;0.70;99.90;;;;;;5113875;28;20929;-80
2021/03/24 06:17:20;;;;;;;19.37;12.07;;;0.70;99.90;;;;;;5115426;28;20456;-82
2021/03/24 06:19:58;;;;;;;23.67;12.93;;;0.80;99.90;;;;;;5039088;28;20946;-83
2021/03/24 06:22:41;;;;;;;24.93;13.00;;;0.90;99.90;;;;;;5113862;28;20438;-83
2021/03/24 06:25:22;;;;;;;23.70;12.73;;;1.00;99.90;;;;;;5114144;28;20404;-83
2021/03/24 06:28:05;;;;;;;23.83;12.13;;;1.60;99.90;;;;;;5114196;28;20458;-80
2021/03/24 06:30:39;;;;;;;18.10;11.60;;;2.90;99.90;;;;;;5113949;28;20397;-80
2021/03/24 06:33:46;;;;;;;18.33;10.77;;;4.30;99.90;;;;;;5113915;28;20423;-81
2021/03/24 06:36:38;;;;;;;14.93;10.83;;;5.80;99.90;;;;;;5113806;28;20449;-80
2021/03/24 06:39:23;;;;;;;22.03;13.07;;;6.90;99.90;;;;;;5113778;28;20442;-80
2021/03/24 06:42:06;;;;;;;14.80;9.73;;;6.80;99.90;;;;;;5113812;28;20435;-81
2021/03/24 06:45:07;;;;;;;18.03;11.33;;;6.00;99.90;;;;;;5113531;28;20472;-81
2021/03/24 06:47:45;;;;;;;23.07;10.70;;;5.20;99.90;;;;;;5080315;28;20463;-81
2021/03/24 06:50:43;;;;;;;18.90;9.63;;;4.40;99.90;;;;;;5113832;28;20430;-80
2021/03/24 06:53:54;;;;;;;15.80;10.23;;;3.80;99.90;;;;;;5091380;28;20500;-81
2021/03/24 06:56:49;;;;;;;21.03;10.20;;;3.60;99.90;;;;;;5083223;28;20486;-80
2021/03/24 07:00:00;;;;;;;14.50;9.60;;;3.40;99.90;;;;;;5117974;28;20423;-80
2021/03/24 07:03:06;;;;;;;20.77;12.37;;;3.20;99.90;;;;;;5117892;28;20431;-80
2021/03/24 07:05:49;;;;;;;22.83;13.60;;;3.20;99.90;;;;;;5117493;28;21002;-80
2021/03/24 07:08:27;;;;;;;19.20;11.77;;;3.20;99.90;;;;;;5117737;28;20822;-80
2021/03/24 07:11:05;;;;;;;18.50;13.40;;;3.20;99.90;;;;;;5117730;28;20423;-81
2021/03/24 07:14:02;;;;;;;19.93;12.40;;;3.10;99.90;;;;;;5117663;28;20446;-80
2021/03/24 07:16:55;;;;;;;20.80;12.67;;;3.10;99.90;;;;;;5117531;28;20419;-80
2021/03/24 07:19:41;;;;;;;21.50;13.07;;;3.20;99.90;;;;;;5117711;28;20534;-80
2021/03/24 07:22:32;;;;;;;22.03;12.20;;;3.20;99.90;;;;;;5117508;28;20423;-81
2021/03/24 07:25:23;;;;;;;16.97;10.27;;;3.20;99.90;;;;;;5117589;28;20451;-84
2021/03/24 07:28:20;;;;;;;18.07;10.33;;;3.30;99.90;;;;;;5117452;28;20451;-84
2021/03/24 07:31:29;;;;;;;21.07;11.17;;;3.40;99.90;;;;;;5111317;28;20492;-84
2021/03/24 07:34:04;;;;;;;20.40;11.27;;;3.50;99.90;;;;;;5117133;28;20472;-84
2021/03/24 07:37:03;;;;;;;17.00;10.00;;;3.60;99.90;;;;;;5117314;28;20415;-84
2021/03/24 07:39:59;;;;;;;20.10;10.70;;;3.70;99.90;;;;;;5117294;28;20449;-84
2021/03/24 07:42:48;;;;;;;18.50;10.97;;;3.90;99.90;;;;;;5117385;28;20435;-83
2021/03/24 07:45:25;;;;;;;19.00;10.00;;;4.00;99.90;;;;;;5117145;28;20451;-84
2021/03/24 07:48:37;;;;;;;17.33;10.20;;;4.10;99.90;;;;;;5117092;28;20481;-83
2021/03/24 07:51:13;;;;;;;17.97;10.53;;;4.10;99.90;;;;;;5116742;28;20438;-84
2021/03/24 07:53:46;;;;;;;18.60;11.30;;;4.20;99.90;;;;;;5117071;28;20434;-84
2021/03/24 07:56:25;;;;;;;20.00;9.83;;;4.40;99.90;;;;;;5116564;28;20475;-84
2021/03/24 07:59:21;;;;;;;14.87;9.43;;;4.50;99.90;;;;;;5116404;28;20989;-84
2021/03/24 08:02:00;;;;;;;16.77;9.77;;;4.80;99.90;;;;;;5116480;28;20934;-84
2021/03/24 08:04:51;;;;;;;17.00;9.43;;;4.80;99.90;;;;;;5116712;28;20431;-84
2021/03/24 08:07:28;;;;;;;15.57;9.30;;;4.90;99.90;;;;;;5116636;28;20463;-84
2021/03/24 08:10:18;;;;;;;21.57;10.53;;;5.10;99.90;;;;;;5116705;28;20488;-84
2021/03/24 08:13:02;;;;;;;16.20;9.70;;;5.20;99.90;;;;;;5116345;28;20459;-84
2021/03/24 08:15:51;;;;;;;18.47;10.63;;;5.30;99.90;;;;;;5116278;28;20404;-84
2021/03/24 08:18:28;;;;;;;18.17;10.30;;;5.40;99.90;;;;;;5116356;28;20486;-84
2021/03/24 08:21:01;;;;;;;17.30;10.10;;;5.70;99.90;;;;;;5116097;28;20875;-84
2021/03/24 08:23:50;;;;;;;17.73;10.83;;;5.80;99.90;;;;;;5116499;28;20439;-84
2021/03/24 08:26:24;;;;;;;18.40;10.70;;;5.90;99.90;;;;;;5116061;28;20427;-84
2021/03/24 08:28:59;;;;;;;17.70;9.70;;;6.00;99.90;;;;;;5116270;28;20471;-84
2021/03/24 08:32:11;;;;;;;16.80;9.67;;;6.30;99.90;;;;;;5116042;28;20899;-84
2021/03/24 08:35:24;;;;;;;20.60;11.00;;;6.50;99.90;;;;;;5054131;28;20517;-84
2021/03/24 08:38:12;;;;;;;19.10;11.13;;;6.80;99.90;;;;;;5053138;28;21004;-84
2021/03/24 08:41:04;;;;;;;14.47;8.90;;;7.00;99.90;;;;;;5116912;28;20440;-89
2021/03/24 08:43:45;;;;;;;17.97;11.00;;;7.20;99.90;;;;;;5115975;28;20531;-85
2021/03/24 08:46:17;;;;;;;18.07;11.00;;;7.30;99.90;;;;;;5115744;28;20452;-85
2021/03/24 08:48:47;;;;;;;19.80;11.50;;;7.50;99.90;;;;;;5115948;28;20475;-84
2021/03/24 08:51:19;;;;;;;17.70;10.67;;;7.60;99.90;;;;;;5115896;28;20435;-84
2021/03/24 08:53:59;;;;;;;17.73;10.73;;;7.70;99.90;;;;;;5115574;28;20926;-84
2021/03/24 08:56:35;;;;;;;17.90;11.23;;;7.90;99.90;;;;;;5115277;28;20483;-84
2021/03/24 08:59:17;;;;;;;15.53;10.17;;;8.20;99.90;;;;;;5115847;28;20439;-85
2021/03/24 09:02:02;;;;;;;18.60;11.40;;;8.60;99.90;;;;;;5116126;28;20412;-85
2021/03/24 09:05:01;;;;;;;15.73;9.60;;;9.20;99.90;;;;;;5115631;28;20431;-85
2021/03/24 09:07:39;;;;;;;15.03;10.30;;;10.50;99.90;;;;;;5081530;28;20472;-84
2021/03/24 09:10:33;;;;;;;15.10;10.00;;;12.50;99.30;;;;;;5115054;28;20914;-84
2021/03/24 09:13:07;;;;;;;14.30;9.80;;;15.00;90.10;;;;;;5091533;28;20453;-84
2021/03/24 09:15:42;;;;;;;15.73;9.27;;;17.00;70.40;;;;;;5114812;28;20923;-84
2021/03/24 09:18:20;;;;;;;16.57;9.33;;;18.80;63.70;;;;;;5115149;28;20486;-84
2021/03/24 09:21:01;;;;;;;12.27;8.83;;;20.00;54.30;;;;;;5115298;28;20521;-85
2021/03/24 09:24:18;;;;;;;11.73;9.00;;;20.50;51.30;;;;;;5114935;28;20937;-85
2021/03/24 09:27:22;;;;;;;13.10;10.43;;;20.70;49.40;;;;;;5114754;28;20484;-85
2021/03/24 09:30:21;;;;;;;11.97;10.70;;;22.00;48.20;;;;;;5114774;28;20453;-82
2021/03/24 09:32:58;;;;;;;11.75;9.88;;;22.40;45.10;;;;;;5057297;28;20203;-82
2021/03/24 09:35:37;;;;;;;12.57;10.25;;;22.00;45.30;;;;;;5114999;28;20188;-82
2021/03/24 09:38:07;;;;;;;12.65;9.98;;;21.80;45.30;;;;;;5114709;28;20259;-82
2021/03/24 09:40:39;;;;;;;9.50;8.55;;;21.40;44.60;;;;;;5114610;28;20591;-82
2021/03/24 09:43:18;;;;;;;10.10;9.07;;;21.80;45.60;;;;;;5114936;28;20213;-84
2021/03/24 09:45:57;;;;;;;13.48;9.15;;;21.80;45.00;;;;;;5115048;28;20193;-81
2021/03/24 09:48:24;;;;;;;13.07;10.52;;;22.00;43.60;;;;;;5114676;28;20244;-81
2021/03/24 09:51:05;;;;;;;11.77;9.73;;;22.10;43.40;;;;;;5114708;28;20233;-82
2021/03/24 09:53:37;;;;;;;11.15;9.38;;;22.20;43.00;;;;;;5114715;28;20184;-81
2021/03/24 09:56:06;;;;;;;10.82;9.15;;;22.10;42.30;;;;;;5114245;28;20232;-82
2021/03/24 09:59:02;;;;;;;9.05;8.15;;;22.10;44.00;;;;;;5114285;28;20687;-88
2021/03/24 10:01:53;;;;;;;11.70;9.15;;;22.40;42.60;;;;;;5078995;28;20215;-83
2021/03/24 10:04:40;;;;;;;14.43;9.43;;;22.20;42.60;;;;;;5105541;28;20288;-82
2021/03/24 10:07:10;;;;;;;12.23;9.13;;;22.40;43.00;;;;;;5112185;28;20578;-81
2021/03/24 10:09:43;;;;;;;11.45;9.65;;;22.80;43.10;;;;;;5114045;28;20185;-82
2021/03/24 10:12:20;;;;;;;10.40;8.35;;;23.00;43.50;;;;;;5114527;28;20220;-88
2021/03/24 10:14:52;;;;;;;10.27;8.85;;;22.90;41.00;;;;;;5114667;28;20192;-88
2021/03/24 10:17:23;;;;;;;10.90;8.73;;;22.60;41.80;;;;;;5114219;28;20224;-85
2021/03/24 10:19:56;;;;;;;10.80;8.80;;;22.70;41.80;;;;;;5113931;28;20659;-82
2021/03/24 10:22:26;;;;;;;10.20;9.13;;;22.70;40.80;;;;;;5114243;28;20652;-82
2021/03/24 10:25:03;;;;;;;12.20;9.48;;;22.70;42.70;;;;;;5114247;28;20189;-83
2021/03/24 10:27:32;;;;;;;9.57;8.40;;;23.20;43.20;;;;;;5113691;28;20224;-82
2021/03/24 10:30:25;;;;;;;12.52;9.38;;;23.90;39.40;;;;;;5114246;28;20189;-88
2021/03/24 10:33:02;;;;;;;13.48;9.45;;;24.10;39.90;;;;;;5113869;28;20201;-81
2021/03/24 10:35:34;;;;;;;10.27;8.98;;;23.00;41.70;;;;;;5113897;28;20188;-81
2021/03/24 10:38:17;;;;;;;12.82;10.00;;;22.70;40.90;;;;;;5113917;28;20232;-81
2021/03/24 10:40:47;;;;;;;13.07;9.70;;;22.30;42.30;;;;;;5114095;28;20173;-81
2021/03/24 10:43:18;;;;;;;12.60;10.23;;;22.50;42.50;;;;;;5114010;28;20189;-81
2021/03/24 10:45:49;;;;;;;12.03;10.17;;;23.70;41.10;;;;;;5113907;28;20192;-81
2021/03/24 10:48:22;;;;;;;11.30;9.20;;;24.20;39.20;;;;;;5113730;28;20714;-81
2021/03/24 10:50:58;;;;;;;11.50;9.73;;;24.70;40.30;;;;;;5113455;28;20601;-82
2021/03/24 10:53:27;;;;;;;12.50;8.55;;;24.80;37.80;;;;;;5113752;28;20189;-81
2021/03/24 10:56:08;;;;;;;10.43;9.02;;;25.80;38.30;;;;;;5113511;28;20307;-82
2021/03/24 10:58:53;;;;;;;13.35;9.70;;;26.60;37.60;;;;;;5113602;28;20229;-81
2021/03/24 11:01:24;;;;;;;12.32;9.07;;;26.80;35.70;;;;;;5112560;28;20298;-82
2021/03/24 11:04:00;;;;;;;12.95;9.63;;;27.00;35.10;;;;;;5113394;28;20189;-82
2021/03/24 11:06:33;;;;;;;11.23;8.95;;;26.30;37.00;;;;;;5113692;28;20188;-82
2021/03/24 11:09:07;;;;;;;10.52;9.32;;;25.50;36.40;;;;;;5113649;28;20180;-82
2021/03/24 11:11:39;;;;;;;9.32;7.88;;;24.20;37.80;;;;;;5113646;28;20181;-82
2021/03/24 11:14:12;;;;;;;10.98;9.20;;;22.80;39.70;;;;;;5113625;28;20189;-83
2021/03/24 11:16:42;;;;;;;10.77;8.60;;;21.40;41.40;;;;;;5113450;28;20185;-82
2021/03/24 11:19:16;;;;;;;12.03;8.70;;;20.30;44.10;;;;;;5113565;28;20237;-82
2021/03/24 11:22:08;;;;;;;11.70;9.50;;;19.40;43.90;;;;;;5113534;28;20412;-82
2021/03/24 11:24:48;;;;;;;10.17;8.33;;;18.40;46.50;;;;;;5113477;28;20438;-82
2021/03/24 11:27:21;;;;;;;10.23;8.43;;;17.50;46.80;;;;;;5113566;28;20553;-82
2021/03/24 11:29:55;;;;;;;14.03;9.30;;;17.20;49.00;;;;;;5113438;28;20435;-82
2021/03/24 11:32:32;;;;;;;12.37;8.57;;;16.90;48.50;;;;;;5113339;28;20427;-82
2021/03/24 11:35:07;;;;;;;13.87;8.47;;;16.60;49.60;;;;;;5113373;28;20431;-82
2021/03/24 11:37:45;;;;;;;14.10;8.37;;;16.50;51.00;;;;;;5115099;28;20486;-82
2021/03/24 11:40:27;;;;;;;10.17;7.83;;;16.30;51.10;;;;;;5117001;28;20426;-82
2021/03/24 11:42:56;;;;;;;9.07;6.40;;;16.10;50.60;;;;;;5116876;28;20941;-82
2021/03/24 11:45:24;;;;;;;9.43;7.10;;;16.10;51.00;;;;;;5117194;28;20437;-82
2021/03/24 11:48:01;;;;;;;9.13;7.17;;;16.00;49.80;;;;;;5116717;28;20455;-82
2021/03/24 11:50:35;;;;;;;11.93;7.60;;;15.70;49.90;;;;;;5116759;28;20971;-82
2021/03/24 11:53:10;;;;;;;9.50;7.03;;;15.50;50.00;;;;;;5116992;28;20411;-82
2021/03/24 11:55:46;;;;;;;9.43;6.60;;;15.30;49.70;;;;;;5116774;28;20466;-82
2021/03/24 11:58:41;;;;;;;9.03;6.43;;;15.10;50.40;;;;;;5116776;28;20508;-82
2021/03/24 12:01:21;;;;;;;11.90;6.63;;;15.10;50.90;;;;;;5116421;28;20442;-82
2021/03/24 12:04:03;;;;;;;8.90;6.80;;;14.90;50.20;;;;;;5116478;28;20891;-82
2021/03/24 12:06:46;;;;;;;10.00;6.40;;;14.80;50.90;;;;;;5116769;28;20404;-82
2021/03/24 12:09:20;;;;;;;10.80;7.13;;;14.70;50.50;;;;;;5116659;28;20434;-81
2021/03/24 12:11:47;;;;;;;8.90;6.47;;;14.50;52.10;;;;;;5116630;28;20431;-82
2021/03/24 12:14:17;;;;;;;9.70;6.93;;;14.50;52.00;;;;;;5116324;28;20435;-81
2021/03/24 12:16:47;;;;;;;12.93;7.97;;;14.30;50.90;;;;;;5116420;28;20461;-82
2021/03/24 12:19:38;;;;;;;13.50;5.13;;;14.20;52.00;;;;;;5116705;28;20427;-81
2021/03/24 12:22:23;;;;;;;13.13;6.60;;;14.00;52.50;;;;;;5100921;28;20966;-81
2021/03/24 12:25:01;;;;;;;10.03;6.97;;;14.00;51.60;;;;;;5116372;28;20431;-81
2021/03/24 12:27:32;;;;;;;11.43;6.60;;;14.10;51.50;;;;;;5116203;28;20473;-80
2021/03/24 12:30:03;;;;;;;8.03;6.07;;;14.10;50.90;;;;;;5115990;28;20492;-80
2021/03/24 12:32:33;;;;;;;9.93;5.83;;;14.00;50.90;;;;;;5116109;28;20773;-80
2021/03/24 12:34:59;;;;;;;9.83;6.30;;;13.70;51.30;;;;;;5116138;28;20431;-80
2021/03/24 12:37:33;;;;;;;10.40;6.23;;;13.60;53.00;;;;;;5115657;28;20487;-80
2021/03/24 12:40:10;;;;;;;9.80;5.73;;;13.50;52.90;;;;;;5116031;28;20443;-80
2021/03/24 12:42:37;;;;;;;8.80;5.80;;;13.60;53.20;;;;;;5115404;28;20446;-80
2021/03/24 12:45:26;;;;;;;10.37;5.50;;;13.40;52.00;;;;;;5115955;28;20445;-80
2021/03/24 12:48:10;;;;;;;7.90;5.50;;;13.40;53.30;;;;;;5115213;28;20467;-80
2021/03/24 12:50:48;;;;;;;9.67;6.10;;;13.40;52.60;;;;;;5115241;28;20434;-80
2021/03/24 12:53:23;;;;;;;7.83;4.90;;;13.40;53.60;;;;;;5115430;28;20926;-80
2021/03/24 12:55:58;;;;;;;10.80;5.37;;;13.30;53.20;;;;;;5115283;28;20482;-80
2021/03/24 12:58:35;;;;;;;6.70;4.73;;;13.40;51.90;;;;;;5115533;28;20490;-80
2021/03/24 13:01:11;;;;;;;7.77;5.00;;;13.40;51.90;;;;;;5115412;28;20962;-80
2021/03/24 13:04:08;;;;;;;5.80;5.00;;;13.40;51.20;;;;;;5115616;28;20435;-80
2021/03/24 13:06:57;;;;;;;7.70;4.80;;;13.30;51.30;;;;;;5115468;28;20443;-80
2021/03/24 13:09:34;;;;;;;7.27;5.03;;;13.20;52.10;;;;;;5115474;28;20851;-80
2021/03/24 13:12:08;;;;;;;7.97;5.10;;;13.10;52.20;;;;;;5115488;28;20431;-80
2021/03/24 13:14:52;;;;;;;7.23;5.03;;;13.10;52.40;;;;;;5115468;28;20408;-80
2021/03/24 13:17:28;;;;;;;5.30;4.37;;;13.20;52.00;;;;;;5114877;28;20535;-80
2021/03/24 13:20:07;;;;;;;9.30;4.00;;;13.10;51.60;;;;;;5115293;28;20484;-79
2021/03/24 13:22:39;;;;;;;6.30;4.20;;;13.10;50.70;;;;;;5115443;28;20427;-79
2021/03/24 13:25:20;;;;;;;8.47;4.37;;;12.90;51.80;;;;;;5115385;28;20469;-82